createdAt,value
2019-02-21T00:03:37.575Z,72.10
2019-02-21T00:06:06.093Z,72.10
2019-02-21T00:08:34.767Z,72.30
2019-02-21T00:11:03.562Z,72.40
2019-02-21T00:13:32.224Z,72.40
2019-02-21T00:16:00.753Z,72.50
2019-02-21T00:18:29.381Z,72.50
2019-02-21T00:20:57.886Z,72.70
2019-02-21T00:23:26.486Z,72.80
2019-02-21T00:25:55.833Z,72.80
2019-02-21T00:28:25.246Z,72.90
2019-02-21T00:30:53.691Z,73.00
2019-02-21T00:33:22.175Z,73.10
2019-02-21T00:35:50.725Z,73.10
2019-02-21T00:38:19.369Z,73.20
2019-02-21T00:40:47.857Z,73.10
2019-02-21T00:43:16.308Z,73.20
2019-02-21T00:45:44.759Z,73.20
2019-02-21T00:48:13.585Z,73.30
2019-02-21T00:50:44.667Z,73.30
2019-02-21T00:53:14.664Z,73.70
2019-02-21T00:55:43.164Z,73.40
2019-02-21T00:58:11.615Z,73.50
2019-02-21T01:00:46.464Z,73.50
2019-02-21T01:03:10.284Z,73.70
2019-02-21T01:05:38.764Z,73.80
2019-02-21T01:08:07.900Z,74.00
2019-02-21T01:10:36.395Z,74.50
2019-02-21T01:13:04.973Z,74.10
2019-02-21T01:15:33.424Z,74.20
2019-02-21T01:18:01.913Z,74.30
2019-02-21T01:20:31.820Z,74.40
2019-02-21T01:23:00.260Z,74.50
2019-02-21T01:25:28.808Z,74.60
2019-02-21T01:27:57.379Z,74.70
2019-02-21T01:30:25.833Z,75.00
2019-02-21T01:32:54.308Z,74.90
2019-02-21T01:35:23.249Z,75.00
2019-02-21T01:37:51.749Z,75.00
2019-02-21T01:40:20.693Z,75.00
2019-02-21T01:42:49.502Z,76.00
2019-02-21T01:45:17.966Z,75.20
2019-02-21T01:47:47.502Z,75.20
2019-02-21T01:50:15.976Z,75.30
2019-02-21T01:52:44.519Z,75.40
2019-02-21T01:55:13.072Z,75.60
2019-02-21T01:57:41.538Z,75.70
2019-02-21T02:00:12.203Z,75.70
2019-02-21T02:02:42.739Z,75.80
2019-02-21T02:05:11.182Z,75.90
2019-02-21T02:07:39.726Z,76.10
2019-02-21T02:10:09.546Z,76.20
2019-02-21T02:12:38.151Z,76.20
2019-02-21T02:15:08.892Z,76.30
2019-02-21T02:17:37.377Z,76.40
2019-02-21T02:20:07.765Z,76.50
2019-02-21T02:22:36.851Z,76.60
2019-02-21T02:25:06.813Z,76.70
2019-02-21T02:27:40.839Z,77.00
2019-02-21T02:30:09.574Z,77.00
2019-02-21T02:32:38.090Z,77.00
2019-02-21T02:35:06.772Z,77.10
2019-02-21T02:37:35.313Z,77.10
2019-02-21T02:40:05.614Z,77.20
2019-02-21T02:42:34.131Z,77.30
2019-02-21T02:45:02.584Z,77.40
2019-02-21T02:47:32.811Z,77.30
2019-02-21T02:50:01.335Z,77.40
2019-02-21T02:52:29.876Z,77.60
2019-02-21T02:54:58.432Z,77.70
2019-02-21T02:57:26.883Z,77.70
2019-02-21T02:59:55.418Z,77.80
2019-02-21T03:02:23.903Z,77.90
2019-02-21T03:04:52.449Z,78.00
2019-02-21T03:07:20.991Z,78.10
2019-02-21T03:09:49.516Z,78.30
2019-02-21T03:12:17.981Z,78.50
2019-02-21T03:14:46.502Z,78.60
2019-02-21T03:17:14.980Z,78.80
2019-02-21T03:19:43.432Z,78.80
2019-02-21T03:22:11.879Z,78.80
2019-02-21T03:24:40.359Z,78.80
2019-02-21T03:27:08.812Z,78.70
2019-02-21T03:29:37.274Z,78.70
2019-02-21T03:32:05.759Z,78.60
2019-02-21T03:34:34.229Z,78.70
2019-02-21T03:37:02.737Z,78.60
2019-02-21T03:39:31.213Z,78.60
2019-02-21T03:41:59.665Z,78.50
2019-02-21T03:44:29.002Z,78.50
2019-02-21T03:46:57.496Z,78.50
2019-02-21T03:49:25.941Z,78.40
2019-02-21T03:51:54.403Z,78.20
2019-02-21T03:54:23.021Z,78.20
2019-02-21T03:56:51.541Z,78.20
2019-02-21T03:59:20.018Z,78.20
2019-02-21T04:01:48.584Z,78.30
2019-02-21T04:04:17.095Z,78.10
2019-02-21T04:06:45.682Z,78.20
2019-02-21T04:09:14.186Z,78.30
2019-02-21T04:11:42.705Z,78.40
2019-02-21T04:14:11.235Z,78.40
2019-02-21T04:16:39.779Z,78.50
2019-02-21T04:19:08.232Z,78.40
2019-02-21T04:21:36.700Z,78.50
2019-02-21T04:24:05.252Z,78.50
2019-02-21T04:26:33.769Z,78.50
2019-02-21T04:29:02.216Z,78.60
2019-02-21T04:31:30.736Z,78.70
2019-02-21T04:33:59.521Z,78.70
2019-02-21T04:36:29.537Z,78.70
2019-02-21T04:38:58.120Z,78.80
2019-02-21T04:41:26.574Z,78.80
2019-02-21T04:43:56.570Z,78.90
2019-02-21T04:46:25.033Z,79.00
2019-02-21T04:48:53.515Z,79.00
2019-02-21T04:51:22.028Z,79.20
2019-02-21T04:53:50.567Z,79.20
2019-02-21T04:56:19.020Z,79.20
2019-02-21T04:58:47.488Z,79.40
2019-02-21T05:01:15.936Z,79.50
2019-02-21T05:03:44.404Z,79.50
2019-02-21T05:06:12.864Z,79.60
2019-02-21T05:08:41.321Z,79.60
2019-02-21T05:11:09.876Z,79.50
2019-02-21T05:13:38.400Z,79.50
2019-02-21T05:16:06.853Z,79.40
2019-02-21T05:18:35.553Z,79.50
2019-02-21T05:21:05.851Z,79.50
2019-02-21T05:23:36.686Z,79.50
2019-02-21T05:26:05.417Z,79.60
2019-02-21T05:28:33.859Z,79.70
2019-02-21T05:31:04.075Z,79.70
2019-02-21T05:33:36.683Z,79.70
2019-02-21T05:36:11.572Z,79.70
2019-02-21T05:38:47.441Z,79.70
2019-02-21T05:41:19.364Z,79.70
2019-02-21T05:43:49.538Z,79.60
2019-02-21T05:46:19.713Z,79.60
2019-02-21T05:49:12.090Z,79.70
2019-02-21T05:51:42.225Z,79.90
2019-02-21T05:54:12.857Z,80.60
2019-02-21T05:56:43.188Z,79.80
2019-02-21T05:59:13.307Z,79.90
2019-02-21T06:01:43.401Z,80.00
2019-02-21T06:04:16.503Z,80.00
2019-02-21T06:06:55.624Z,80.00
2019-02-21T06:09:25.725Z,80.00
2019-02-21T06:11:58.649Z,80.70
2019-02-21T06:14:38.268Z,80.10
2019-02-21T06:17:29.079Z,80.20
2019-02-21T06:19:59.984Z,80.20
2019-02-21T06:22:38.695Z,80.30
2019-02-21T06:25:08.960Z,80.20
2019-02-21T06:27:55.262Z,80.30
2019-02-21T06:30:28.185Z,80.50
2019-02-21T06:33:04.577Z,80.50
2019-02-21T06:35:27.011Z,80.50
2019-02-21T06:37:55.614Z,80.50
2019-02-21T06:40:24.109Z,80.50
2019-02-21T06:42:54.615Z,80.50
2019-02-21T06:45:24.597Z,80.60
2019-02-21T06:47:53.821Z,80.60
2019-02-21T06:50:26.778Z,80.60
2019-02-21T06:52:52.470Z,80.60
2019-02-21T06:55:20.967Z,80.60
2019-02-21T06:57:51.100Z,80.70
2019-02-21T07:00:21.070Z,80.60
2019-02-21T07:02:49.636Z,81.40
2019-02-21T07:05:18.219Z,80.70
2019-02-21T07:07:46.689Z,80.80
2019-02-21T07:10:16.564Z,80.80
2019-02-21T07:12:45.400Z,80.70
2019-02-21T07:15:15.115Z,80.70
2019-02-21T07:17:49.220Z,80.60
2019-02-21T07:20:15.189Z,80.60
2019-02-21T07:22:47.457Z,80.60
2019-02-21T07:25:34.040Z,80.80
2019-02-21T07:28:11.663Z,80.80
2019-02-21T07:30:34.405Z,80.60
2019-02-21T07:33:03.390Z,80.50
2019-02-21T07:35:31.957Z,80.50
2019-02-21T07:38:00.632Z,80.40
2019-02-21T07:40:29.247Z,80.30
2019-02-21T07:42:59.366Z,80.30
2019-02-21T07:45:27.906Z,80.30
2019-02-21T07:47:56.642Z,80.20
2019-02-21T07:50:25.107Z,80.20
2019-02-21T07:53:02.052Z,80.10
2019-02-21T07:55:27.001Z,80.30
2019-02-21T07:57:55.654Z,80.10
2019-02-21T08:00:24.178Z,80.10
2019-02-21T08:02:52.647Z,80.00
2019-02-21T08:05:23.610Z,80.00
2019-02-21T08:07:51.945Z,79.90
2019-02-21T08:10:25.807Z,79.80
2019-02-21T08:12:53.454Z,79.80
2019-02-21T08:15:21.257Z,79.60
2019-02-21T08:17:50.161Z,79.50
2019-02-21T08:20:20.097Z,79.40
2019-02-21T08:22:48.631Z,79.20
2019-02-21T08:25:19.439Z,79.00
2019-02-21T08:27:52.818Z,78.90
2019-02-21T08:30:21.277Z,78.80
2019-02-21T08:33:00.553Z,78.70
2019-02-21T08:35:31.271Z,78.60
2019-02-21T08:37:59.824Z,78.60
2019-02-21T08:40:28.445Z,78.50
2019-02-21T08:42:56.959Z,78.40
2019-02-21T08:45:25.493Z,78.20
2019-02-21T08:47:54.013Z,78.30
2019-02-21T08:50:23.982Z,78.10
2019-02-21T08:52:53.545Z,78.10
2019-02-21T08:55:22.038Z,77.80
2019-02-21T08:57:50.623Z,77.60
2019-02-21T09:00:22.163Z,77.60
2019-02-21T09:02:52.914Z,77.40
2019-02-21T09:05:21.514Z,77.00
2019-02-21T09:07:53.771Z,76.60
2019-02-21T09:10:22.377Z,76.70
2019-02-21T09:12:50.898Z,76.50
2019-02-21T09:15:21.707Z,76.60
2019-02-21T09:17:50.527Z,76.50
2019-02-21T09:20:18.981Z,76.30
2019-02-21T09:22:47.432Z,76.10
2019-02-21T09:25:16.098Z,75.90
2019-02-21T09:27:44.562Z,75.70
2019-02-21T09:30:18.291Z,75.20
2019-02-21T09:32:47.413Z,75.00
2019-02-21T09:35:15.983Z,74.80
2019-02-21T09:37:44.518Z,74.40
2019-02-21T09:40:14.595Z,74.20
2019-02-21T09:42:43.819Z,74.00
2019-02-21T09:45:18.307Z,73.80
2019-02-21T09:47:47.005Z,73.30
2019-02-21T09:50:15.550Z,73.10
2019-02-21T09:52:45.546Z,72.90
2019-02-21T09:55:17.764Z,72.50
2019-02-21T09:57:46.455Z,72.10
2019-02-21T10:00:23.758Z,72.10
2019-02-21T10:02:56.366Z,71.80
2019-02-21T10:05:23.020Z,71.30
2019-02-21T10:07:52.353Z,70.70
2019-02-21T10:10:20.849Z,70.40
2019-02-21T10:12:50.495Z,70.50
2019-02-21T10:15:19.100Z,70.10
2019-02-21T10:17:51.093Z,69.80
2019-02-21T10:20:23.573Z,69.50
2019-02-21T10:22:52.124Z,69.40
2019-02-21T10:25:26.219Z,69.40
2019-02-21T10:27:58.981Z,68.80
2019-02-21T10:30:27.729Z,68.90
2019-02-21T10:32:58.276Z,69.00
2019-02-21T10:35:26.801Z,68.90
2019-02-21T10:37:55.402Z,68.50
2019-02-21T10:40:23.876Z,68.60
2019-02-21T10:42:54.272Z,68.60
2019-02-21T10:45:23.201Z,68.80
2019-02-21T10:47:51.728Z,69.00
2019-02-21T10:50:21.731Z,69.30
2019-02-21T10:52:51.058Z,69.70
2019-02-21T10:55:19.644Z,70.40
2019-02-21T10:57:48.175Z,71.00
2019-02-21T11:00:22.267Z,71.70
2019-02-21T11:02:50.814Z,72.20
2019-02-21T11:05:19.341Z,72.80
2019-02-21T11:07:48.000Z,73.40
2019-02-21T11:10:19.550Z,74.00
2019-02-21T11:12:51.797Z,74.50
2019-02-21T11:15:22.935Z,74.90
2019-02-21T11:17:52.217Z,75.10
2019-02-21T11:20:21.941Z,75.30
2019-02-21T11:22:50.483Z,75.30
2019-02-21T11:25:20.418Z,75.50
2019-02-21T11:27:48.902Z,75.50
2019-02-21T11:30:19.929Z,75.30
2019-02-21T11:32:49.151Z,75.50
2019-02-21T11:35:17.737Z,75.50
2019-02-21T11:37:47.394Z,75.00
2019-02-21T11:40:17.548Z,74.50
2019-02-21T11:42:46.342Z,74.40
2019-02-21T11:45:20.159Z,74.30
2019-02-21T11:47:50.137Z,74.20
2019-02-21T11:50:19.372Z,74.00
2019-02-21T11:52:51.777Z,74.20
2019-02-21T11:55:25.290Z,74.40
2019-02-21T11:57:53.979Z,74.60
2019-02-21T12:00:25.109Z,74.20
2019-02-21T12:02:53.658Z,73.50
2019-02-21T12:05:32.203Z,73.30
2019-02-21T12:07:54.861Z,73.40
2019-02-21T12:10:23.979Z,72.90
2019-02-21T12:12:53.796Z,71.90
2019-02-21T12:15:22.388Z,71.00
2019-02-21T12:17:52.107Z,71.10
2019-02-21T12:20:21.272Z,71.10
2019-02-21T12:22:49.796Z,70.70
2019-02-21T12:25:22.114Z,70.60
2019-02-21T12:27:51.475Z,70.60
2019-02-21T12:30:21.069Z,70.50
2019-02-21T12:32:49.691Z,70.10
2019-02-21T12:35:29.304Z,69.80
2019-02-21T12:37:52.465Z,70.10
2019-02-21T12:40:22.828Z,69.90
2019-02-21T12:42:51.296Z,69.60
2019-02-21T12:45:27.014Z,68.80
2019-02-21T12:47:55.547Z,68.90
2019-02-21T12:50:44.526Z,68.40
2019-02-21T12:53:14.850Z,68.50
2019-02-21T12:55:44.896Z,68.20
2019-02-21T12:58:13.404Z,68.10
2019-02-21T13:00:41.980Z,67.80
2019-02-21T13:03:10.448Z,68.30
2019-02-21T13:05:41.324Z,67.80
2019-02-21T13:08:11.253Z,67.40
2019-02-21T13:10:41.923Z,67.10
2019-02-21T13:13:17.596Z,66.90
2019-02-21T13:15:46.050Z,66.70
2019-02-21T13:18:16.243Z,66.40
2019-02-21T13:20:46.055Z,66.60
2019-02-21T13:23:14.875Z,66.60
2019-02-21T13:25:43.419Z,66.50
2019-02-21T13:28:13.448Z,66.30
2019-02-21T13:30:41.997Z,66.40
2019-02-21T13:33:10.448Z,65.80
2019-02-21T13:35:51.880Z,66.20
2019-02-21T13:38:11.690Z,66.40
2019-02-21T13:40:40.312Z,66.70
2019-02-21T13:43:08.803Z,66.60
2019-02-21T13:45:37.248Z,66.50
2019-02-21T13:48:05.792Z,66.60
2019-02-21T13:50:35.817Z,66.70
2019-02-21T13:53:05.886Z,66.70
2019-02-21T13:55:34.403Z,66.90
2019-02-21T13:58:04.140Z,67.00
2019-02-21T14:00:33.380Z,67.20
2019-02-21T14:03:01.909Z,67.40
2019-02-21T14:05:30.399Z,67.60
2019-02-21T14:07:59.053Z,67.80
2019-02-21T14:10:30.248Z,68.10
2019-02-21T14:12:58.697Z,68.30
2019-02-21T14:15:30.737Z,68.30
2019-02-21T14:17:59.244Z,68.40
2019-02-21T14:20:27.765Z,68.50
2019-02-21T14:22:56.258Z,68.70
2019-02-21T14:25:24.714Z,69.00
2019-02-21T14:27:53.203Z,70.30
2019-02-21T14:30:22.621Z,70.00
2019-02-21T14:32:51.184Z,70.40
2019-02-21T14:35:21.391Z,71.00
2019-02-21T14:37:49.859Z,71.90
2019-02-21T14:40:18.324Z,72.50
2019-02-21T14:42:46.797Z,73.00
2019-02-21T14:45:20.200Z,74.10
2019-02-21T14:47:49.991Z,74.80
2019-02-21T14:50:18.530Z,76.10
2019-02-21T14:52:47.036Z,76.50
2019-02-21T14:55:20.074Z,77.30
2019-02-21T14:57:50.298Z,78.30
2019-02-21T15:00:29.958Z,78.60
2019-02-21T15:02:58.762Z,78.90
2019-02-21T15:05:27.309Z,79.30
2019-02-21T15:07:58.951Z,79.60
2019-02-21T15:10:29.435Z,80.00
2019-02-21T15:12:58.577Z,80.20
2019-02-21T15:15:39.277Z,80.40
2019-02-21T15:18:11.319Z,80.70
2019-02-21T15:20:43.587Z,80.70
2019-02-21T15:23:12.493Z,81.10
2019-02-21T15:25:40.991Z,81.30
2019-02-21T15:28:10.155Z,81.70
2019-02-21T15:30:38.833Z,81.40
2019-02-21T15:33:07.391Z,81.60
2019-02-21T15:35:36.749Z,81.60
2019-02-21T15:38:05.480Z,81.60
2019-02-21T15:40:33.975Z,81.80
2019-02-21T15:43:05.144Z,82.00
2019-02-21T15:45:33.984Z,81.90
2019-02-21T15:48:03.983Z,82.00
2019-02-21T15:50:32.670Z,82.10
2019-02-21T15:53:02.003Z,82.40
2019-02-21T15:55:32.154Z,82.40
2019-02-21T15:58:05.961Z,82.60
2019-02-21T16:00:34.433Z,83.00
2019-02-21T16:03:06.179Z,82.90
2019-02-21T16:05:34.712Z,82.90
2019-02-21T16:08:03.248Z,82.80
2019-02-21T16:10:33.324Z,82.80
2019-02-21T16:13:04.301Z,82.90
2019-02-21T16:15:32.122Z,82.90
2019-02-21T16:18:02.129Z,82.90
2019-02-21T16:20:30.655Z,82.90
2019-02-21T16:22:59.113Z,82.80
2019-02-21T16:25:35.899Z,83.10
2019-02-21T16:28:04.636Z,83.20
2019-02-21T16:30:33.241Z,83.30
2019-02-21T16:33:01.728Z,83.30
2019-02-21T16:35:33.814Z,83.50
2019-02-21T16:38:02.459Z,83.50
2019-02-21T16:40:31.020Z,83.60
2019-02-21T16:42:59.479Z,83.90
2019-02-21T16:45:39.842Z,84.20
2019-02-21T16:47:58.129Z,84.30
2019-02-21T16:50:29.605Z,84.40
2019-02-21T16:52:56.826Z,84.50
2019-02-21T16:55:27.255Z,84.70
2019-02-21T16:57:55.707Z,84.90
2019-02-21T17:00:25.212Z,85.00
2019-02-21T17:02:56.746Z,85.30
2019-02-21T17:05:25.208Z,85.50
2019-02-21T17:07:55.643Z,85.50
2019-02-21T17:10:24.144Z,85.50
2019-02-21T17:12:55.750Z,85.70
2019-02-21T17:15:24.362Z,85.70
2019-02-21T17:17:54.775Z,85.80
2019-02-21T17:20:24.674Z,86.10
2019-02-21T17:22:53.346Z,86.00
2019-02-21T17:25:23.156Z,86.10
2019-02-21T17:27:51.968Z,86.10
2019-02-21T17:30:20.798Z,86.10
2019-02-21T17:32:49.416Z,86.20
2019-02-21T17:35:17.984Z,86.20
2019-02-21T17:37:46.605Z,86.20
2019-02-21T17:40:17.814Z,86.40
2019-02-21T17:42:46.348Z,86.30
2019-02-21T17:45:14.958Z,86.50
2019-02-21T17:47:43.428Z,86.40
2019-02-21T17:50:14.737Z,86.40
2019-02-21T17:52:43.298Z,86.50
2019-02-21T17:55:12.257Z,86.50
2019-02-21T17:57:40.785Z,86.50
2019-02-21T18:00:19.903Z,86.50
2019-02-21T18:02:48.464Z,86.60
2019-02-21T18:05:17.053Z,86.70
2019-02-21T18:07:45.781Z,86.70
2019-02-21T18:10:16.509Z,86.70
2019-02-21T18:12:44.993Z,86.80
2019-02-21T18:15:17.858Z,86.80
2019-02-21T18:17:46.515Z,86.90
2019-02-21T18:20:16.068Z,87.00
2019-02-21T18:22:44.704Z,87.10
2019-02-21T18:25:34.556Z,87.30
2019-02-21T18:28:03.427Z,87.00
2019-02-21T18:30:33.321Z,87.10
2019-02-21T18:33:01.815Z,87.10
2019-02-21T18:35:30.385Z,87.20
2019-02-21T18:37:58.874Z,87.20
2019-02-21T18:40:29.615Z,87.10
2019-02-21T18:43:03.071Z,87.20
2019-02-21T18:45:31.683Z,87.20
2019-02-21T18:48:02.461Z,87.10
2019-02-21T18:50:38.114Z,87.20
2019-02-21T18:53:01.279Z,87.20
2019-02-21T18:55:29.922Z,87.10
2019-02-21T18:57:58.576Z,87.10
2019-02-21T19:00:27.414Z,87.10
2019-02-21T19:02:56.169Z,87.10
2019-02-21T19:05:34.938Z,87.10
2019-02-21T19:08:05.660Z,87.20
2019-02-21T19:10:34.338Z,87.30
2019-02-21T19:13:03.068Z,87.90
2019-02-21T19:15:32.104Z,87.20
2019-02-21T19:18:02.250Z,87.00
2019-02-21T19:20:30.774Z,87.00
2019-02-21T19:23:00.021Z,87.00
2019-02-21T19:25:31.046Z,87.00
2019-02-21T19:27:59.988Z,87.00
2019-02-21T19:30:34.164Z,87.00
2019-02-21T19:33:02.938Z,87.10
2019-02-21T19:35:32.626Z,87.00
2019-02-21T19:38:10.309Z,87.00
2019-02-21T19:40:32.981Z,87.10
2019-02-21T19:43:01.480Z,87.00
2019-02-21T19:45:29.996Z,87.00
2019-02-21T19:47:58.558Z,87.70
2019-02-21T19:50:27.348Z,86.90
2019-02-21T19:52:56.559Z,86.90
2019-02-21T19:55:25.083Z,86.90
2019-02-21T19:57:53.760Z,86.90
2019-02-21T20:00:25.932Z,86.70
2019-02-21T20:02:55.044Z,86.90
2019-02-21T20:05:23.716Z,87.00
2019-02-21T20:07:53.788Z,86.80
2019-02-21T20:10:25.968Z,86.80
2019-02-21T20:12:54.675Z,86.60
2019-02-21T20:15:27.536Z,86.70
2019-02-21T20:17:56.177Z,86.70
2019-02-21T20:20:26.900Z,86.60
2019-02-21T20:22:55.411Z,86.70
2019-02-21T20:25:26.848Z,86.70
2019-02-21T20:27:55.506Z,86.80
2019-02-21T20:30:24.776Z,86.70
2019-02-21T20:32:53.258Z,86.50
2019-02-21T20:35:21.774Z,86.60
2019-02-21T20:37:50.313Z,86.60
2019-02-21T20:40:18.941Z,86.60
2019-02-21T20:42:47.731Z,86.50
2019-02-21T20:45:16.322Z,86.50
2019-02-21T20:47:44.877Z,86.50
2019-02-21T20:50:14.274Z,86.50
2019-02-21T20:52:42.831Z,86.40
2019-02-21T20:55:12.461Z,86.40
2019-02-21T20:57:41.069Z,86.40
2019-02-21T21:00:12.948Z,86.30
2019-02-21T21:02:42.697Z,86.30
2019-02-21T21:05:12.756Z,86.20
2019-02-21T21:07:44.523Z,86.20
2019-02-21T21:10:14.777Z,86.30
2019-02-21T21:12:43.352Z,86.10
2019-02-21T21:15:13.675Z,86.10
2019-02-21T21:17:44.227Z,86.10
2019-02-21T21:20:16.936Z,86.10
2019-02-21T21:22:44.815Z,86.10
2019-02-21T21:25:18.836Z,86.10
2019-02-21T21:27:53.827Z,86.20
2019-02-21T21:30:22.356Z,86.00
2019-02-21T21:32:52.172Z,86.00
2019-02-21T21:35:25.023Z,85.90
2019-02-21T21:37:53.485Z,85.90
2019-02-21T21:40:21.978Z,85.90
2019-02-21T21:42:50.467Z,85.80
2019-02-21T21:45:19.049Z,85.80
2019-02-21T21:47:47.689Z,85.80
2019-02-21T21:50:19.560Z,85.80
2019-02-21T21:52:48.093Z,85.80
2019-02-21T21:55:16.726Z,85.90
2019-02-21T21:57:45.393Z,85.80
2019-02-21T22:00:18.117Z,85.90
2019-02-21T22:02:47.086Z,85.90
2019-02-21T22:05:15.859Z,85.90
2019-02-21T22:07:44.503Z,85.90
2019-02-21T22:10:14.459Z,85.90
2019-02-21T22:12:49.875Z,86.10
2019-02-21T22:15:21.825Z,86.00
2019-02-21T22:17:52.353Z,85.90
2019-02-21T22:20:20.823Z,85.90
2019-02-21T22:22:49.285Z,85.90
2019-02-21T22:25:17.798Z,85.90
2019-02-21T22:27:46.471Z,86.70
2019-02-21T22:30:21.840Z,85.90
2019-02-21T22:32:50.438Z,85.90
2019-02-21T22:35:20.101Z,85.90
2019-02-21T22:37:48.568Z,85.90
2019-02-21T22:40:20.880Z,85.90
2019-02-21T22:42:49.479Z,85.90
2019-02-21T22:45:21.664Z,85.90
2019-02-21T22:47:50.130Z,85.90
2019-02-21T22:50:20.033Z,85.90
2019-02-21T22:52:48.635Z,85.90
2019-02-21T22:55:21.340Z,86.00
2019-02-21T22:57:52.094Z,85.90
2019-02-21T23:00:37.095Z,85.90
2019-02-21T23:03:10.933Z,85.90
2019-02-21T23:05:48.584Z,85.90
2019-02-21T23:08:28.764Z,85.90
2019-02-21T23:10:58.843Z,85.90
2019-02-21T23:13:28.848Z,86.00
2019-02-21T23:15:57.414Z,85.90
2019-02-21T23:18:25.959Z,86.00
2019-02-21T23:20:57.110Z,86.00
2019-02-21T23:23:32.411Z,85.90
2019-02-21T23:26:02.544Z,86.00
2019-02-21T23:28:31.104Z,86.00
2019-02-21T23:31:01.087Z,86.00
2019-02-21T23:33:30.994Z,85.90
2019-02-21T23:35:59.459Z,85.90
2019-02-21T23:38:29.520Z,86.70
2019-02-21T23:40:58.069Z,85.80
2019-02-21T23:43:26.518Z,85.80
2019-02-21T23:45:55.139Z,85.80
2019-02-21T23:48:29.150Z,85.80
2019-02-21T23:51:00.911Z,85.80
2019-02-21T23:53:29.417Z,85.80
2019-02-21T23:55:57.889Z,85.80
2019-02-21T23:58:26.339Z,85.70
